Portada
METAR-TAF:

METAR-TAF

Aeropuertos :

Mécheria, Argelia

latitud: 34-56N, longitud: 000-26W, altitud: 1149 m

Observación

El informe se hizo hace 1 hora y 4 minutos, a las 17:00 UTC
Viento 10 kt del norte
Temperatura 23°C
Humedad 22%
Presión 1023 hPa
Visibilidad 10 km o más
sin nubes por debajo de 1500 m y sin presencia de cumulonimbus.

METAR: DAAY 261700Z 35010KT CAVOK 23/M00 Q1023

Hora: 19:04 (18:04 UTC)

Pronóstico

El informe se hizo hace 1 hora y 4 minutos, a las 17:00 UTC
Pronóstico válido del 26 a las 18 UTC al 27 a las 03 UTC
Viento 10 kt del norte-noreste
Visibilidad 10 km o más
sin nubes por debajo de 1500 m y sin presencia de cumulonimbus.

TAF: DAAY 261700Z 2618/2703 02010KT CAVOK

Observaciones y pronósticos meteorológicos de más de 4000 aeropuertos (mensajes METAR y TAF).

Los puntos amarillos y rojos representan las estaciones disponibles.

Ponga el ratón en el punto deseado para ver el nombre de la estación.

Haga clic para ver las observaciones y los pronósticos meteorológicos.

Para cambiar el mapa : haga clic en los botones verdes con una cruz de color negro para hacer un zoom, en el botón verde con un guión para alejar o en las flechas verdes para mapas adyacentes.


METAR-TAF: